createdAt,value
2023-03-11T09:00:13.285Z,4.78
2023-03-11T09:01:47.721Z,4.90
2023-03-11T09:03:42.716Z,5.04
2023-03-11T09:05:20.711Z,5.25
2023-03-11T09:07:04.162Z,5.36
2023-03-11T09:09:22.765Z,5.57
2023-03-11T09:11:11.361Z,5.67
2023-03-11T09:12:43.507Z,5.59
2023-03-11T09:15:26.376Z,5.73
2023-03-11T09:17:11.297Z,5.92
2023-03-11T10:05:48.202Z,7.92
2023-03-11T11:56:59.889Z,7.95
2023-03-11T12:00:32.934Z,7.84
2023-03-11T12:11:52.427Z,7.35
2023-03-11T12:14:15.051Z,7.29
2023-03-11T12:16:29.282Z,7.27
2023-03-11T12:39:34.158Z,7.64
2023-03-11T12:41:44.678Z,7.67
2023-03-11T12:43:48.115Z,7.76
2023-03-11T12:45:50.066Z,7.93
2023-03-11T12:47:30.339Z,7.84
2023-03-11T12:49:15.404Z,7.98
2023-03-11T12:50:50.395Z,8.01
2023-03-11T12:52:26.882Z,7.97
2023-03-11T12:54:31.310Z,7.89
2023-03-11T12:56:11.553Z,7.96
2023-03-11T12:57:51.335Z,8.00
2023-03-11T13:00:10.988Z,8.10
2023-03-11T13:01:55.084Z,8.33
2023-03-11T13:04:02.009Z,8.33
2023-03-11T13:05:49.762Z,8.36
2023-03-11T13:07:42.100Z,8.27
2023-03-11T13:09:16.783Z,8.23
2023-03-11T13:10:50.550Z,8.14
2023-03-11T13:12:37.766Z,8.22
2023-03-11T13:14:12.203Z,8.23
2023-03-11T13:15:44.603Z,8.34
2023-03-11T13:17:32.373Z,8.34
2023-03-11T13:19:35.487Z,8.40
2023-03-11T13:21:30.886Z,8.43
2023-03-11T13:23:02.944Z,8.42
2023-03-11T13:24:34.973Z,8.51
2023-03-11T13:26:10.057Z,8.53
2023-03-11T13:27:44.567Z,8.57
2023-03-11T13:29:16.647Z,8.61
2023-03-11T13:31:20.069Z,8.42
2023-03-11T13:33:14.199Z,8.44
2023-03-11T13:34:55.340Z,8.42
2023-03-11T13:36:48.701Z,8.36
2023-03-11T13:38:23.992Z,8.49
2023-03-11T13:40:02.036Z,8.39
2023-03-11T13:41:37.786Z,8.42
2023-03-11T13:43:22.261Z,8.36
2023-03-11T13:45:04.656Z,8.37
2023-03-11T13:46:42.479Z,8.42
2023-03-11T13:48:17.416Z,8.41
2023-03-11T13:50:02.641Z,8.39
2023-03-11T13:51:45.476Z,8.42
2023-03-11T13:53:38.096Z,8.37
2023-03-11T13:55:34.818Z,8.42
2023-03-11T13:57:28.458Z,8.39
2023-03-11T13:59:36.494Z,8.49
2023-03-11T14:01:18.922Z,8.58
2023-03-11T14:02:58.733Z,8.56
2023-03-11T14:04:35.678Z,8.61
2023-03-11T14:06:32.348Z,8.65
2023-03-11T14:08:35.313Z,8.69
2023-03-11T14:22:43.285Z,8.67
2023-03-11T14:24:25.319Z,8.63
2023-03-11T14:24:38.285Z,8.68
2023-03-11T14:26:54.169Z,8.70
2023-03-11T14:40:43.257Z,8.65
2023-03-11T14:43:40.279Z,8.69
2023-03-11T14:45:14.413Z,8.72
2023-03-11T14:47:31.147Z,8.89
2023-03-11T14:49:21.720Z,8.94
2023-03-11T14:54:19.547Z,8.73
2023-03-11T15:01:50.738Z,8.60
2023-03-11T15:02:37.509Z,8.59
2023-03-11T15:04:00.209Z,8.50
2023-03-11T15:06:13.893Z,8.53
2023-03-11T15:09:10.501Z,8.46
2023-03-11T15:10:26.700Z,8.61
2023-03-11T15:12:36.966Z,8.59
2023-03-11T15:14:51.822Z,8.58
2023-03-11T15:20:18.855Z,8.54
2023-03-11T15:22:42.735Z,8.55
2023-03-11T15:24:59.031Z,8.46
2023-03-11T15:38:33.050Z,8.68
2023-03-11T16:03:30.216Z,8.45
2023-03-11T16:05:12.914Z,8.52
2023-03-11T16:07:02.947Z,8.44
2023-03-11T16:08:57.353Z,8.38
2023-03-11T16:10:58.250Z,8.31
2023-03-11T16:12:56.460Z,8.37
2023-03-11T16:14:40.628Z,8.33
2023-03-11T16:25:54.662Z,7.98
2023-03-11T16:27:30.603Z,7.98
2023-03-11T16:29:16.679Z,7.88
2023-03-11T16:31:13.352Z,7.90
2023-03-11T16:32:47.992Z,7.83
2023-03-11T16:36:19.907Z,7.82
2023-03-11T16:37:52.046Z,7.77
2023-03-11T16:39:24.092Z,7.68
2023-03-11T16:41:01.140Z,7.62
2023-03-11T16:42:39.375Z,7.56
2023-03-11T16:44:11.908Z,7.55
2023-03-11T16:45:55.400Z,7.58
2023-03-11T16:47:31.902Z,7.56
2023-03-11T16:49:08.494Z,7.46
2023-03-11T16:50:40.584Z,7.39
2023-03-11T16:52:31.281Z,7.34
2023-03-11T16:54:16.069Z,7.29
2023-03-11T16:56:01.111Z,7.25
2023-03-11T16:58:07.161Z,7.22
2023-03-11T16:59:45.198Z,7.16
2023-03-11T17:01:48.855Z,7.16
2023-03-11T17:03:34.488Z,7.13
2023-03-11T17:05:19.291Z,7.08
2023-03-11T17:06:51.412Z,7.07
2023-03-11T17:08:25.092Z,7.10
2023-03-11T17:09:58.366Z,7.09
2023-03-11T17:11:31.245Z,7.03
2023-03-11T17:13:06.378Z,7.06
2023-03-11T17:14:38.631Z,7.12
2023-03-11T17:16:12.243Z,7.13
2023-03-11T17:17:49.491Z,7.15
2023-03-11T17:19:38.768Z,7.03
2023-03-11T17:21:38.473Z,6.97
2023-03-11T17:23:13.639Z,6.95
2023-03-11T17:24:57.234Z,6.92
2023-03-11T17:26:41.439Z,6.87
2023-03-11T17:28:45.743Z,6.79
2023-03-11T17:30:35.854Z,6.77
2023-03-11T17:32:17.582Z,6.78
2023-03-11T17:33:55.051Z,6.79
2023-03-11T17:35:38.050Z,6.81
2023-03-11T17:37:15.157Z,6.81
2023-03-11T17:38:52.814Z,6.77
2023-03-11T17:40:27.146Z,6.72
2023-03-11T17:41:59.240Z,6.69
2023-03-11T17:43:31.193Z,6.69
2023-03-11T17:45:10.885Z,6.65
2023-03-11T17:46:45.469Z,6.60
2023-03-11T17:48:17.780Z,6.56
2023-03-11T17:49:49.936Z,6.50
2023-03-11T17:51:31.105Z,6.47
2023-03-11T17:53:05.148Z,6.41
2023-03-11T17:54:37.247Z,6.38
2023-03-11T17:56:10.517Z,6.36
2023-03-11T17:57:46.103Z,6.32
2023-03-11T17:59:22.652Z,6.27
2023-03-11T18:00:54.794Z,6.20
2023-03-11T18:02:53.903Z,6.16
2023-03-11T18:04:26.150Z,6.15
2023-03-11T18:06:00.328Z,6.12
2023-03-11T18:07:34.809Z,6.07
2023-03-11T18:09:11.300Z,6.04
2023-03-11T18:10:51.056Z,5.93
2023-03-11T18:12:25.238Z,5.83
2023-03-11T18:14:00.355Z,5.81
2023-03-11T18:15:32.453Z,5.84
2023-03-11T18:17:20.481Z,5.84
2023-03-11T18:18:52.927Z,5.84
2023-03-11T18:20:25.094Z,5.83
2023-03-11T18:22:25.383Z,5.83
2023-03-11T18:23:59.034Z,5.82
2023-03-11T18:25:31.345Z,5.80
2023-03-11T18:32:47.639Z,5.58
2023-03-11T18:40:33.831Z,5.54
2023-03-11T18:42:11.459Z,5.51
2023-03-11T18:44:58.431Z,5.47
2023-03-11T18:49:48.284Z,5.31
2023-03-11T18:51:54.936Z,5.29
2023-03-11T18:53:34.582Z,5.20
2023-03-11T18:55:15.300Z,5.16
2023-03-11T18:56:53.894Z,5.17
2023-03-11T18:58:28.974Z,5.19
2023-03-11T19:00:01.236Z,5.14
2023-03-11T19:01:43.429Z,5.10
2023-03-11T19:03:34.046Z,5.06
2023-03-11T19:05:37.314Z,5.01
2023-03-11T19:07:23.606Z,5.00
2023-03-11T19:09:42.776Z,4.96
2023-03-11T19:11:29.774Z,4.89
2023-03-11T19:13:04.987Z,4.85
2023-03-11T19:14:37.592Z,4.77
2023-03-11T19:16:11.182Z,4.68
2023-03-11T19:17:54.501Z,4.66
2023-03-11T19:19:38.238Z,4.66
2023-03-11T19:21:19.503Z,4.63
2023-03-11T19:23:26.598Z,4.60
2023-03-11T19:25:03.649Z,4.63
2023-03-11T19:26:46.387Z,4.59
2023-03-11T19:28:21.910Z,4.50
2023-03-11T19:29:56.792Z,4.47
2023-03-11T19:31:32.533Z,4.43
2023-03-11T19:33:07.056Z,4.44
2023-03-11T19:34:48.166Z,4.41
2023-03-11T19:37:05.601Z,4.39
2023-03-11T19:38:59.051Z,4.39
2023-03-11T19:43:07.554Z,4.38
2023-03-11T19:45:29.832Z,4.38
2023-03-11T19:47:24.951Z,4.35
2023-03-11T19:49:25.963Z,4.36
2023-03-11T19:51:00.427Z,4.36
2023-03-11T19:52:45.627Z,4.33
2023-03-11T19:54:23.169Z,4.29
2023-03-11T19:56:08.962Z,4.26
2023-03-11T19:57:50.777Z,4.25
2023-03-11T19:59:23.044Z,4.18
2023-03-11T23:11:30.268Z,3.48
2023-03-11T23:14:03.949Z,3.49
2023-03-11T23:23:20.790Z,3.43
2023-03-11T23:25:07.604Z,3.41
2023-03-11T23:29:16.892Z,3.38
2023-03-11T23:33:55.775Z,3.42
2023-03-11T23:42:52.668Z,3.45
2023-03-11T23:43:31.115Z,3.44
2023-03-11T23:47:49.490Z,3.40
2023-03-11T23:59:01.286Z,3.39
